createdAt,value
2018-04-10T00:01:02.245Z,15.61
2018-04-10T00:03:32.132Z,15.72
2018-04-10T00:06:00.705Z,15.73
2018-04-10T00:08:29.510Z,15.70
2018-04-10T00:10:57.934Z,15.63
2018-04-10T00:13:26.333Z,15.60
2018-04-10T00:15:55.464Z,15.62
2018-04-10T00:18:23.859Z,15.58
2018-04-10T00:20:52.388Z,15.62
2018-04-10T00:23:21.557Z,15.56
2018-04-10T00:25:50.021Z,15.46
2018-04-10T00:28:19.257Z,15.49
2018-04-10T00:30:48.407Z,15.52
2018-04-10T00:33:16.803Z,15.55
2018-04-10T00:35:45.184Z,15.57
2018-04-10T00:38:13.583Z,15.60
2018-04-10T00:40:41.965Z,15.66
2018-04-10T00:43:10.349Z,15.49
2018-04-10T00:45:38.915Z,15.45
2018-04-10T00:48:07.292Z,15.50
2018-04-10T00:50:35.682Z,15.57
2018-04-10T00:53:21.989Z,15.58
2018-04-10T00:55:50.406Z,15.67
2018-04-10T00:58:19.252Z,15.53
2018-04-10T01:00:47.629Z,15.52
2018-04-10T01:03:16.043Z,15.37
2018-04-10T01:05:44.442Z,15.41
2018-04-10T01:08:13.645Z,15.45
2018-04-10T01:10:42.023Z,15.49
2018-04-10T01:13:11.963Z,15.40
2018-04-10T01:15:41.113Z,15.52
2018-04-10T01:18:09.554Z,15.37
2018-04-10T01:20:38.698Z,15.22
2018-04-10T01:23:07.256Z,15.07
2018-04-10T01:25:35.628Z,15.19
2018-04-10T01:28:04.792Z,15.23
2018-04-10T01:30:33.169Z,15.12
2018-04-10T01:33:01.576Z,15.07
2018-04-10T01:35:30.006Z,15.16
2018-04-10T01:37:58.412Z,15.00
2018-04-10T01:40:26.814Z,14.92
2018-04-10T01:42:55.971Z,14.78
2018-04-10T01:45:24.430Z,14.67
2018-04-10T01:47:53.593Z,14.51
2018-04-10T01:50:21.990Z,14.42
2018-04-10T01:52:50.384Z,14.44
2018-04-10T01:55:19.540Z,14.48
2018-04-10T01:57:47.941Z,14.51
2018-04-10T02:00:16.312Z,14.49
2018-04-10T02:02:44.724Z,14.39
2018-04-10T02:05:13.104Z,14.33
2018-04-10T02:07:41.512Z,14.27
2018-04-10T02:10:10.669Z,14.28
2018-04-10T02:12:39.041Z,14.08
2018-04-10T02:15:07.432Z,14.22
2018-04-10T02:17:35.822Z,14.34
2018-04-10T02:20:04.219Z,14.07
2018-04-10T02:22:32.593Z,14.00
2018-04-10T02:25:00.965Z,14.10
2018-04-10T02:27:29.354Z,13.91
2018-04-10T02:29:57.725Z,13.75
2018-04-10T02:32:26.117Z,13.72
2018-04-10T02:34:54.520Z,13.81
2018-04-10T02:37:22.898Z,13.80
2018-04-10T02:39:51.304Z,13.66
2018-04-10T02:42:20.488Z,13.56
2018-04-10T02:44:50.377Z,13.54
2018-04-10T02:47:18.761Z,13.54
2018-04-10T02:49:47.154Z,13.44
2018-04-10T02:52:15.548Z,13.55
2018-04-10T02:54:43.920Z,13.75
2018-04-10T02:57:12.424Z,13.75
2018-04-10T02:59:40.821Z,13.56
2018-04-10T03:02:09.216Z,13.74
2018-04-10T03:04:38.400Z,13.53
2018-04-10T03:07:06.789Z,13.69
2018-04-10T03:09:35.209Z,13.63
2018-04-10T03:12:03.605Z,13.52
2018-04-10T03:14:32.014Z,13.47
2018-04-10T03:17:00.389Z,13.55
2018-04-10T03:19:28.948Z,13.56
2018-04-10T03:21:57.381Z,13.61
2018-04-10T03:24:25.809Z,13.80
2018-04-10T03:26:54.190Z,13.86
2018-04-10T03:29:22.584Z,13.82
2018-04-10T03:31:50.982Z,13.75
2018-04-10T03:34:19.393Z,13.96
2018-04-10T03:36:47.764Z,13.78
2018-04-10T03:39:16.158Z,13.82
2018-04-10T03:41:44.633Z,13.83
2018-04-10T03:44:13.112Z,13.80
2018-04-10T03:46:41.520Z,13.81
2018-04-10T03:49:09.907Z,13.78
2018-04-10T03:51:38.305Z,13.93
2018-04-10T03:54:07.469Z,13.94
2018-04-10T03:56:35.888Z,13.90
2018-04-10T03:59:04.249Z,14.04
2018-04-10T04:01:32.669Z,13.93
2018-04-10T04:04:01.080Z,14.05
2018-04-10T04:06:29.464Z,13.89
2018-04-10T04:08:57.857Z,14.04
2018-04-10T04:11:26.237Z,13.95
2018-04-10T04:13:54.613Z,14.05
2018-04-10T04:16:40.708Z,14.09
2018-04-10T04:19:27.113Z,13.87
2018-04-10T04:22:20.199Z,13.77
2018-04-10T04:24:49.357Z,13.74
2018-04-10T04:27:17.769Z,13.68
2018-04-10T04:29:46.179Z,13.63
2018-04-10T04:32:15.504Z,13.50
2018-04-10T04:34:43.881Z,13.40
2018-04-10T04:37:12.299Z,13.29
2018-04-10T04:39:40.709Z,13.19
2018-04-10T04:42:09.089Z,13.07
2018-04-10T04:44:37.477Z,13.14
2018-04-10T04:47:05.906Z,12.97
2018-04-10T04:49:34.394Z,13.03
2018-04-10T04:52:02.805Z,12.97
2018-04-10T04:54:31.321Z,12.93
2018-04-10T04:57:00.485Z,12.88
2018-04-10T04:59:28.873Z,12.75
2018-04-10T05:01:57.269Z,12.70
2018-04-10T05:04:25.689Z,12.62
2018-04-10T05:06:54.835Z,12.68
2018-04-10T05:09:23.257Z,12.70
2018-04-10T05:11:52.432Z,12.76
2018-04-10T05:14:20.855Z,12.71
2018-04-10T05:16:50.036Z,12.78
2018-04-10T05:19:19.223Z,12.80
2018-04-10T05:21:47.624Z,12.83
2018-04-10T05:24:16.774Z,12.76
2018-04-10T05:26:45.265Z,12.78
2018-04-10T05:29:13.654Z,12.88
2018-04-10T05:31:42.046Z,12.92
2018-04-10T05:34:10.472Z,12.88
2018-04-10T05:36:39.625Z,12.94
2018-04-10T05:39:08.040Z,12.99
2018-04-10T05:41:36.429Z,13.07
2018-04-10T05:44:05.602Z,13.11
2018-04-10T05:46:34.012Z,13.25
2018-04-10T05:49:03.195Z,13.31
2018-04-10T05:51:31.613Z,13.24
2018-04-10T05:54:00.770Z,13.45
2018-04-10T05:56:29.159Z,13.56
2018-04-10T05:58:57.606Z,13.59
2018-04-10T06:01:26.045Z,13.60
2018-04-10T06:03:54.427Z,13.83
2018-04-10T06:06:22.809Z,13.71
2018-04-10T06:08:51.193Z,13.92
2018-04-10T06:11:19.577Z,13.85
2018-04-10T06:13:48.728Z,14.04
2018-04-10T06:16:17.124Z,13.88
2018-04-10T06:18:45.511Z,13.95
2018-04-10T06:21:13.891Z,13.92
2018-04-10T06:23:42.281Z,13.85
2018-04-10T06:26:10.717Z,13.86
2018-04-10T06:28:39.894Z,13.89
2018-04-10T06:31:08.448Z,13.86
2018-04-10T06:33:36.957Z,14.00
2018-04-10T06:36:05.381Z,14.31
2018-04-10T06:38:35.481Z,14.22
2018-04-10T06:41:04.622Z,14.09
2018-04-10T06:43:33.018Z,14.34
2018-04-10T06:46:01.505Z,14.28
2018-04-10T06:48:29.905Z,14.55
2018-04-10T06:50:58.327Z,14.48
2018-04-10T06:53:27.540Z,14.37
2018-04-10T06:55:55.904Z,14.54
2018-04-10T06:58:25.054Z,15.07
2018-04-10T07:00:53.449Z,15.32
2018-04-10T07:03:21.911Z,15.07
2018-04-10T07:05:50.299Z,15.01
2018-04-10T07:08:18.777Z,15.08
2018-04-10T07:10:47.173Z,15.33
2018-04-10T07:13:15.589Z,15.52
2018-04-10T07:15:44.108Z,15.78
2018-04-10T07:18:13.291Z,15.82
2018-04-10T07:20:42.527Z,16.26
2018-04-10T07:23:10.901Z,16.58
2018-04-10T07:25:39.369Z,16.47
2018-04-10T07:28:08.515Z,17.10
2018-04-10T07:30:36.921Z,18.21
2018-04-10T07:33:05.319Z,18.04
2018-04-10T07:35:33.724Z,18.65
2018-04-10T07:38:02.882Z,18.03
2018-04-10T07:40:31.293Z,18.70
2018-04-10T07:42:59.674Z,19.21
2018-04-10T07:45:28.068Z,19.27
2018-04-10T07:47:57.398Z,18.12
2018-04-10T07:50:25.794Z,17.88
2018-04-10T07:52:54.183Z,18.41
2018-04-10T07:55:22.609Z,18.75
2018-04-10T07:57:51.057Z,18.09
2018-04-10T08:00:19.642Z,17.77
2018-04-10T08:02:48.026Z,17.94
2018-04-10T08:05:16.458Z,18.13
2018-04-10T08:07:45.633Z,18.23
2018-04-10T08:10:14.008Z,17.62
2018-04-10T08:12:43.197Z,17.35
2018-04-10T08:15:11.586Z,17.86
2018-04-10T08:17:40.004Z,18.34
2018-04-10T08:20:09.885Z,17.81
2018-04-10T08:22:38.298Z,18.01
2018-04-10T08:25:06.701Z,18.31
2018-04-10T08:27:35.866Z,18.72
2018-04-10T08:30:04.317Z,19.34
2018-04-10T08:32:32.773Z,18.69
2018-04-10T08:35:01.920Z,18.95
2018-04-10T08:37:30.298Z,19.34
2018-04-10T08:39:58.694Z,19.31
2018-04-10T08:42:27.073Z,19.08
2018-04-10T08:44:55.465Z,18.93
2018-04-10T08:47:23.938Z,18.32
2018-04-10T08:49:52.303Z,19.23
2018-04-10T08:52:20.802Z,19.36
2018-04-10T08:54:49.173Z,19.91
2018-04-10T08:57:17.666Z,19.84
2018-04-10T08:59:46.042Z,19.80
2018-04-10T09:02:14.466Z,18.99
2018-04-10T09:04:42.844Z,19.93
2018-04-10T09:07:11.293Z,19.61
2018-04-10T09:09:39.721Z,19.51
2018-04-10T09:12:08.109Z,19.45
2018-04-10T09:14:36.533Z,19.92
2018-04-10T09:17:04.911Z,19.93
2018-04-10T09:19:33.284Z,20.08
2018-04-10T09:22:02.434Z,20.32
2018-04-10T09:24:30.818Z,20.57
2018-04-10T09:26:59.214Z,20.35
2018-04-10T09:29:27.589Z,20.32
2018-04-10T09:31:56.009Z,19.99
2018-04-10T09:34:24.391Z,19.49
2018-04-10T09:36:53.523Z,19.49
2018-04-10T09:39:21.938Z,19.42
2018-04-10T09:41:50.354Z,19.72
2018-04-10T09:44:19.525Z,20.00
2018-04-10T09:46:47.934Z,20.02
2018-04-10T09:49:16.325Z,20.27
2018-04-10T09:51:45.482Z,20.78
2018-04-10T09:54:13.886Z,21.10
2018-04-10T09:56:42.250Z,21.11
2018-04-10T09:59:10.649Z,21.45
2018-04-10T10:01:39.046Z,20.71
2018-04-10T10:04:07.412Z,21.24
2018-04-10T10:06:35.811Z,21.48
2018-04-10T10:09:04.194Z,20.78
2018-04-10T10:11:33.372Z,21.34
2018-04-10T10:14:01.743Z,21.02
2018-04-10T10:16:30.129Z,21.74
2018-04-10T10:18:58.509Z,21.11
2018-04-10T10:21:26.890Z,21.00
2018-04-10T10:23:55.315Z,20.13
2018-04-10T10:26:23.714Z,20.48
2018-04-10T10:28:52.869Z,20.72
2018-04-10T10:31:21.236Z,19.89
2018-04-10T10:33:49.609Z,20.41
2018-04-10T10:36:17.942Z,20.47
2018-04-10T10:38:46.344Z,20.76
2018-04-10T10:41:15.503Z,20.59
2018-04-10T10:43:43.899Z,20.65
2018-04-10T10:46:12.285Z,21.01
2018-04-10T10:48:41.424Z,20.07
2018-04-10T10:51:09.930Z,19.63
2018-04-10T10:53:38.301Z,19.94
2018-04-10T10:56:06.710Z,19.75
2018-04-10T10:58:35.068Z,20.00
2018-04-10T11:01:03.471Z,19.90
2018-04-10T11:03:32.564Z,19.45
2018-04-10T11:06:00.958Z,19.27
2018-04-10T11:08:29.371Z,19.31
2018-04-10T11:10:57.754Z,19.12
2018-04-10T11:13:26.128Z,18.81
2018-04-10T11:15:54.502Z,19.24
2018-04-10T11:18:22.890Z,19.30
2018-04-10T11:20:51.285Z,19.41
2018-04-10T11:23:19.657Z,19.43
2018-04-10T11:25:48.090Z,19.46
2018-04-10T11:28:16.485Z,19.62
2018-04-10T11:30:44.897Z,20.06
2018-04-10T11:33:13.266Z,20.22
2018-04-10T11:35:41.694Z,20.00
2018-04-10T11:38:10.076Z,19.81
2018-04-10T11:40:38.502Z,19.61
2018-04-10T11:43:06.916Z,20.14
2018-04-10T11:45:35.289Z,21.52
2018-04-10T11:48:04.589Z,21.87
2018-04-10T11:50:32.992Z,21.69
2018-04-10T11:53:01.389Z,20.94
2018-04-10T11:55:29.793Z,21.02
2018-04-10T11:57:58.925Z,22.12
2018-04-10T12:00:27.297Z,22.87
2018-04-10T12:02:55.683Z,23.40
2018-04-10T12:05:24.048Z,23.73
2018-04-10T12:07:53.218Z,22.98
2018-04-10T12:10:21.781Z,21.95
2018-04-10T12:12:50.346Z,23.23
2018-04-10T12:15:18.766Z,22.83
2018-04-10T12:17:47.155Z,22.68
2018-04-10T12:20:15.705Z,24.12
2018-04-10T12:22:44.106Z,23.92
2018-04-10T12:25:12.491Z,23.34
2018-04-10T12:27:40.881Z,23.25
2018-04-10T12:30:09.272Z,23.06
2018-04-10T12:32:37.669Z,22.50
2018-04-10T12:35:06.081Z,22.84
2018-04-10T12:37:35.246Z,23.06
2018-04-10T12:40:03.631Z,21.83
2018-04-10T12:42:31.998Z,22.71
2018-04-10T12:45:00.383Z,23.49
2018-04-10T12:47:28.765Z,23.96
2018-04-10T12:49:57.161Z,23.96
2018-04-10T12:52:25.548Z,24.11
2018-04-10T12:54:53.952Z,23.84
2018-04-10T12:57:22.313Z,23.34
2018-04-10T12:59:50.682Z,23.09
2018-04-10T13:02:19.066Z,23.54
2018-04-10T13:04:47.460Z,22.92
2018-04-10T13:07:15.908Z,22.89
2018-04-10T13:09:44.388Z,23.12
2018-04-10T13:12:12.781Z,23.13
2018-04-10T13:14:41.181Z,23.94
2018-04-10T13:17:09.583Z,24.81
2018-04-10T13:19:37.956Z,25.90
2018-04-10T13:22:06.357Z,25.24
2018-04-10T13:24:34.780Z,25.52
2018-04-10T13:27:03.202Z,24.57
2018-04-10T13:29:31.625Z,24.52
2018-04-10T13:32:00.805Z,25.36
2018-04-10T13:34:29.235Z,24.56
2018-04-10T13:36:57.615Z,24.91
2018-04-10T13:39:26.003Z,24.79
2018-04-10T13:41:54.404Z,25.04
2018-04-10T13:44:22.837Z,25.41
2018-04-10T13:46:52.016Z,27.26
2018-04-10T13:49:20.443Z,26.91
2018-04-10T13:51:49.621Z,26.81
2018-04-10T13:54:18.087Z,25.33
2018-04-10T13:56:47.308Z,26.22
2018-04-10T13:59:16.558Z,25.37
2018-04-10T14:01:44.938Z,25.09
2018-04-10T14:04:13.369Z,23.92
2018-04-10T14:06:41.748Z,23.37
2018-04-10T14:09:10.130Z,23.97
2018-04-10T14:11:38.538Z,23.10
2018-04-10T14:14:07.757Z,23.42
2018-04-10T14:16:36.909Z,23.51
2018-04-10T14:19:05.367Z,23.29
2018-04-10T14:21:33.749Z,23.63
2018-04-10T14:24:02.155Z,23.08
2018-04-10T14:26:31.343Z,23.13
2018-04-10T14:28:59.751Z,23.80
2018-04-10T14:31:28.238Z,22.91
2018-04-10T14:33:58.138Z,22.94
2018-04-10T14:36:26.565Z,23.58
2018-04-10T14:38:55.705Z,22.95
2018-04-10T14:41:24.097Z,23.11
2018-04-10T14:43:52.482Z,23.24
2018-04-10T14:46:20.870Z,23.21
2018-04-10T14:48:49.237Z,23.26
2018-04-10T14:51:17.625Z,23.35
2018-04-10T14:53:46.026Z,23.65
2018-04-10T14:56:14.429Z,23.81
2018-04-10T14:58:42.812Z,23.89
2018-04-10T15:01:11.210Z,23.55
2018-04-10T15:03:39.637Z,24.07
2018-04-10T15:06:08.053Z,23.98
2018-04-10T15:08:37.218Z,23.53
2018-04-10T15:11:05.593Z,23.23
2018-04-10T15:13:33.997Z,22.67
2018-04-10T15:16:02.362Z,22.80
2018-04-10T15:18:30.757Z,22.82
2018-04-10T15:20:59.141Z,22.72
2018-04-10T15:23:27.506Z,22.70
2018-04-10T15:25:56.817Z,22.53
2018-04-10T15:28:25.203Z,22.43
2018-04-10T15:30:53.730Z,22.18
2018-04-10T15:33:22.126Z,22.17
2018-04-10T15:35:50.546Z,21.93
2018-04-10T15:38:18.965Z,21.96
2018-04-10T15:40:47.388Z,21.90
2018-04-10T15:43:15.809Z,22.02
2018-04-10T15:45:44.244Z,22.08
2018-04-10T15:48:12.631Z,22.26
2018-04-10T15:50:41.038Z,22.12
2018-04-10T15:53:10.183Z,22.04
2018-04-10T15:55:38.575Z,21.96
2018-04-10T15:58:06.965Z,21.88
2018-04-10T16:00:35.337Z,21.59
2018-04-10T16:03:03.804Z,22.00
2018-04-10T16:05:32.201Z,21.97
2018-04-10T16:08:00.608Z,21.93
2018-04-10T16:10:28.989Z,21.75
2018-04-10T16:12:57.396Z,21.57
2018-04-10T16:15:26.693Z,21.44
2018-04-10T16:17:55.858Z,21.59
2018-04-10T16:20:24.232Z,21.42
2018-04-10T16:22:52.670Z,21.28
2018-04-10T16:25:21.817Z,21.10
2018-04-10T16:27:50.197Z,21.07
2018-04-10T16:30:18.712Z,20.83
2018-04-10T16:32:47.175Z,20.86
2018-04-10T16:35:15.548Z,20.87
2018-04-10T16:37:44.477Z,20.63
2018-04-10T16:40:12.895Z,20.66
2018-04-10T16:42:41.262Z,20.31
2018-04-10T16:45:09.641Z,20.36
2018-04-10T16:47:38.072Z,20.33
2018-04-10T16:50:06.515Z,20.05
2018-04-10T16:52:35.884Z,19.95
2018-04-10T16:55:04.601Z,20.15
2018-04-10T16:57:33.064Z,19.94
2018-04-10T17:00:01.524Z,19.69
2018-04-10T17:02:29.945Z,19.59
2018-04-10T17:04:58.325Z,19.41
2018-04-10T17:07:26.722Z,19.67
2018-04-10T17:09:55.130Z,19.56
2018-04-10T17:12:24.302Z,19.56
2018-04-10T17:14:52.686Z,19.35
2018-04-10T17:17:21.094Z,19.37
2018-04-10T17:19:50.273Z,19.33
2018-04-10T17:22:18.673Z,19.04
2018-04-10T17:24:47.104Z,19.18
2018-04-10T17:27:15.528Z,18.95
2018-04-10T17:29:44.697Z,18.97
2018-04-10T17:32:13.083Z,18.52
2018-04-10T17:34:43.128Z,18.30
2018-04-10T17:37:11.553Z,18.13
2018-04-10T17:39:39.960Z,18.05
2018-04-10T17:42:09.320Z,17.81
2018-04-10T17:44:38.479Z,17.54
2018-04-10T17:47:06.909Z,17.31
2018-04-10T17:49:36.072Z,17.04
2018-04-10T17:52:04.477Z,16.75
2018-04-10T17:54:32.881Z,16.32
2018-04-10T17:57:02.972Z,16.12
2018-04-10T17:59:32.174Z,16.21
2018-04-10T18:02:00.609Z,16.12
2018-04-10T18:04:29.002Z,15.99
2018-04-10T18:06:57.449Z,15.83
2018-04-10T18:09:26.629Z,15.78
2018-04-10T18:11:55.042Z,15.68
2018-04-10T18:14:24.251Z,15.59
2018-04-10T18:16:52.645Z,15.35
2018-04-10T18:19:21.086Z,15.37
2018-04-10T18:21:49.477Z,15.23
2018-04-10T18:24:18.683Z,15.25
2018-04-10T18:26:47.853Z,15.22
2018-04-10T18:29:16.839Z,15.05
2018-04-10T18:31:45.310Z,15.11
2018-04-10T18:34:13.790Z,15.26
2018-04-10T18:36:42.340Z,15.14
2018-04-10T18:39:11.996Z,15.17
2018-04-10T18:41:41.410Z,15.17
2018-04-10T18:44:11.452Z,15.06
2018-04-10T18:46:40.517Z,15.00
2018-04-10T18:49:08.971Z,14.83
2018-04-10T18:51:38.195Z,14.66
2018-04-10T18:54:06.657Z,14.65
2018-04-10T18:56:37.137Z,15.00
2018-04-10T18:59:05.588Z,14.88
2018-04-10T19:01:36.855Z,14.77
2018-04-10T19:04:05.259Z,14.69
2018-04-10T19:06:34.664Z,14.64
2018-04-10T19:09:03.067Z,14.54
2018-04-10T19:11:31.608Z,14.48
2018-04-10T19:14:00.070Z,14.49
2018-04-10T19:16:29.573Z,14.24
2018-04-10T19:18:59.737Z,14.00
2018-04-10T19:21:28.130Z,13.82
2018-04-10T19:23:56.608Z,13.76
2018-04-10T19:26:25.022Z,13.71
2018-04-10T19:28:54.287Z,13.69
2018-04-10T19:31:25.530Z,13.70
2018-04-10T19:33:53.929Z,13.71
2018-04-10T19:36:22.367Z,13.61
2018-04-10T19:38:51.579Z,13.92
2018-04-10T19:41:20.015Z,13.93
2018-04-10T19:43:48.422Z,13.62
2018-04-10T19:46:18.003Z,13.62
2018-04-10T19:48:46.466Z,13.59
2018-04-10T19:51:14.863Z,13.53
2018-04-10T19:53:44.016Z,13.56
2018-04-10T19:56:13.271Z,13.55
2018-04-10T19:58:41.645Z,13.45
2018-04-10T20:01:10.068Z,13.39
2018-04-10T20:03:39.233Z,13.36
2018-04-10T20:06:07.675Z,13.51
2018-04-10T20:08:37.019Z,13.47
2018-04-10T20:11:05.701Z,13.56
2018-04-10T20:13:34.472Z,13.65
2018-04-10T20:16:02.877Z,13.74
2018-04-10T20:18:31.351Z,13.72
2018-04-10T20:20:59.770Z,13.61
2018-04-10T20:23:28.193Z,13.54
2018-04-10T20:25:57.362Z,13.50
2018-04-10T20:28:25.797Z,13.48
2018-04-10T20:30:54.254Z,13.55
2018-04-10T20:33:24.315Z,13.41
2018-04-10T20:35:52.743Z,13.40
2018-04-10T20:38:22.235Z,13.50
2018-04-10T20:40:50.643Z,13.41
2018-04-10T20:43:20.863Z,13.25
2018-04-10T20:45:50.056Z,13.39
2018-04-10T20:48:18.899Z,13.25
2018-04-10T20:50:47.357Z,13.22
2018-04-10T20:53:16.574Z,13.18
2018-04-10T20:55:46.111Z,13.12
2018-04-10T20:58:14.664Z,13.09
2018-04-10T21:00:43.049Z,13.11
2018-04-10T21:03:13.973Z,13.09
2018-04-10T21:05:43.162Z,13.34
2018-04-10T21:08:11.561Z,13.17
2018-04-10T21:10:40.776Z,13.21
2018-04-10T21:13:09.179Z,13.38
2018-04-10T21:15:37.581Z,13.33
2018-04-10T21:18:06.009Z,13.39
2018-04-10T21:20:35.202Z,13.53
2018-04-10T21:23:03.687Z,13.34
2018-04-10T21:25:32.194Z,13.15
2018-04-10T21:28:01.349Z,13.09
2018-04-10T21:30:30.501Z,13.04
2018-04-10T21:32:59.663Z,13.02
2018-04-10T21:35:28.065Z,12.98
2018-04-10T21:37:56.456Z,12.99
2018-04-10T21:40:25.618Z,13.19
2018-04-10T21:42:59.529Z,13.38
2018-04-10T21:45:28.695Z,13.49
2018-04-10T21:47:57.088Z,13.29
2018-04-10T21:50:25.477Z,13.14
2018-04-10T21:52:53.863Z,13.08
2018-04-10T21:55:22.255Z,13.20
2018-04-10T21:57:50.689Z,13.15
2018-04-10T22:00:19.855Z,13.14
2018-04-10T22:02:48.263Z,13.21
2018-04-10T22:05:17.427Z,12.91
2018-04-10T22:07:45.889Z,12.84
2018-04-10T22:10:14.277Z,12.77
2018-04-10T22:12:42.689Z,12.51
2018-04-10T22:15:11.092Z,12.51
2018-04-10T22:17:39.474Z,12.45
2018-04-10T22:20:07.913Z,12.32
2018-04-10T22:22:36.342Z,12.30
2018-04-10T22:25:04.755Z,12.57
2018-04-10T22:27:33.165Z,12.44
2018-04-10T22:30:01.566Z,12.35
2018-04-10T22:32:31.985Z,12.16
2018-04-10T22:35:00.366Z,11.89
2018-04-10T22:37:28.805Z,11.79
2018-04-10T22:39:57.206Z,11.70
2018-04-10T22:42:25.614Z,11.64
2018-04-10T22:44:54.099Z,11.61
2018-04-10T22:47:22.491Z,11.51
2018-04-10T22:49:50.891Z,11.40
2018-04-10T22:52:20.064Z,11.36
2018-04-10T22:54:48.464Z,11.35
2018-04-10T22:57:16.858Z,11.41
2018-04-10T22:59:46.041Z,11.39
2018-04-10T23:02:14.431Z,11.36
2018-04-10T23:04:42.858Z,11.38
2018-04-10T23:07:11.270Z,11.36
2018-04-10T23:09:39.757Z,11.41
2018-04-10T23:12:08.150Z,11.39
2018-04-10T23:14:36.565Z,11.33
2018-04-10T23:17:04.954Z,11.28
2018-04-10T23:19:33.375Z,11.32
2018-04-10T23:22:01.811Z,11.28
2018-04-10T23:24:30.180Z,11.24
2018-04-10T23:26:58.580Z,11.19
2018-04-10T23:29:26.967Z,11.13
2018-04-10T23:31:55.349Z,11.04
2018-04-10T23:34:23.731Z,10.98
2018-04-10T23:36:52.129Z,10.89
2018-04-10T23:39:20.527Z,10.89
2018-04-10T23:41:48.927Z,10.89
2018-04-10T23:44:18.069Z,10.91
2018-04-10T23:46:46.456Z,10.89
2018-04-10T23:49:14.874Z,10.96
2018-04-10T23:51:43.266Z,10.95
2018-04-10T23:54:12.425Z,11.00
2018-04-10T23:56:41.586Z,10.99
2018-04-10T23:59:09.992Z,11.03
